Time;durP1;ratioP1;P1;durP2;ratioP2;P2;SDS_P1;SDS_P2;PMS_P1;PMS_P2;Temp;Humidity;BMP_temperature;BMP_pressure;BME280_temperature;BME280_humidity;BME280_pressure;Samples;Min_cycle;Max_cycle;Signal;HPM_P1;HPM_P2
2022/08/18 00:00:56;;;;;;;;;;;;;;;26.79;41.08;99844.09;20448760;28;97991;-71
2022/08/18 00:10:57;;;;;;;;;;;;;;;26.74;41.27;99833.94;20431944;28;100780;-70
2022/08/18 00:20:58;;;;;;;;;;;;;;;26.70;41.16;99819.34;20441408;28;98807;-70
2022/08/18 00:31:00;;;;;;;;;;;;;;;26.65;41.00;99819.03;20438130;28;98164;-70
2022/08/18 00:41:00;;;;;;;;;;;;;;;26.58;41.17;99818.06;20425733;28;98320;-70
2022/08/18 00:51:02;;;;;;;;;;;;;;;26.53;41.15;99832.66;20415623;28;101558;-71
2022/08/18 01:01:04;;;;;;;;;;;;;;;26.48;41.71;99826.19;20410639;28;98954;-70
2022/08/18 01:11:04;;;;;;;;;;;;;;;26.42;42.09;99845.44;20413894;28;100961;-70
2022/08/18 01:31:33;;;;;;;;;;;;;;;26.35;42.39;99848.78;20414959;28;98766;-70
2022/08/18 01:41:33;;;;;;;;;;;;;;;26.30;42.30;99853.72;20411648;28;98441;-70
2022/08/18 01:51:36;;;;;;;;;;;;;;;26.25;42.39;99864.03;20433446;28;99620;-70
2022/08/18 02:01:37;;;;;;;;;;;;;;;26.22;42.72;99859.06;20430190;28;100750;-69
2022/08/18 02:11:38;;;;;;;;;;;;;;;26.19;42.96;99865.50;20436618;28;102164;-69
2022/08/18 02:21:38;;;;;;;;;;;;;;;26.15;42.96;99861.53;20427454;28;101269;-70
2022/08/18 02:31:38;;;;;;;;;;;;;;;26.15;43.37;99858.88;20439053;28;99044;-70
2022/08/18 02:41:39;;;;;;;;;;;;;;;26.09;43.56;99872.81;20452035;28;97959;-70
2022/08/18 02:51:39;;;;;;;;;;;;;;;26.06;44.08;99875.72;20439965;28;98515;-70
2022/08/18 03:01:41;;;;;;;;;;;;;;;26.01;44.38;99878.06;20436213;28;98821;-70
2022/08/18 03:11:42;;;;;;;;;;;;;;;25.98;45.12;99887.16;20448039;28;98699;-70
2022/08/18 03:21:44;;;;;;;;;;;;;;;25.93;45.44;99886.00;20441630;28;101183;-71
2022/08/18 03:31:47;;;;;;;;;;;;;;;25.91;45.52;99906.56;20430599;28;97643;-70
2022/08/18 03:41:47;;;;;;;;;;;;;;;25.87;45.94;99920.13;20425125;28;106097;-70
2022/08/18 03:51:48;;;;;;;;;;;;;;;25.87;46.06;99916.66;20437225;28;100837;-69
2022/08/18 04:01:49;;;;;;;;;;;;;;;25.95;46.13;99895.47;20433833;28;101007;-70
2022/08/18 04:11:50;;;;;;;;;;;;;;;25.92;45.95;99902.91;20427698;28;97806;-70
2022/08/18 04:21:51;;;;;;;;;;;;;;;25.83;46.37;99900.25;20443040;28;98646;-70
2022/08/18 04:31:51;;;;;;;;;;;;;;;25.78;46.60;99909.66;20432678;28;100874;-72
2022/08/18 04:41:51;;;;;;;;;;;;;;;25.73;46.77;99905.69;20450610;28;101534;-70
2022/08/18 05:02:13;;;;;;;;;;;;;;;25.69;47.60;99912.28;20426732;28;98468;-70
2022/08/18 05:12:14;;;;;;;;;;;;;;;25.65;48.19;99899.53;20431526;27;100806;-74
2022/08/18 05:22:18;;;;;;;;;;;;;;;25.67;48.69;99897.53;20427940;28;100527;-73
2022/08/18 05:32:18;;;;;;;;;;;;;;;25.66;48.61;99895.84;20432631;28;97802;-70
2022/08/18 05:42:20;;;;;;;;;;;;;;;25.69;49.19;99904.31;20425648;28;98976;-69
2022/08/18 05:52:20;;;;;;;;;;;;;;;25.66;50.43;99907.31;20432773;28;99010;-72
2022/08/18 06:02:40;;;;;;;;;;;;;;;25.69;50.76;99914.94;20429765;28;98040;-73
2022/08/18 06:12:48;;;;;;;;;;;;;;;25.87;49.78;99908.69;20431618;28;99151;-73
2022/08/18 06:22:55;;;;;;;;;;;;;;;25.96;49.85;99926.28;20446482;28;101024;-74
2022/08/18 06:33:06;;;;;;;;;;;;;;;26.08;49.28;99932.16;20449979;28;98161;-72
2022/08/18 06:43:10;;;;;;;;;;;;;;;26.18;49.35;99924.91;20457234;28;100098;-70
2022/08/18 06:53:10;;;;;;;;;;;;;;;26.29;50.02;99921.09;20436180;28;98463;-70
2022/08/18 07:03:19;;;;;;;;;;;;;;;26.44;48.58;99912.47;20432062;28;99179;-70
2022/08/18 07:13:27;;;;;;;;;;;;;;;26.55;48.59;99906.00;20436897;28;99174;-72
2022/08/18 07:23:39;;;;;;;;;;;;;;;26.63;47.81;99884.75;20448923;28;98511;-71
2022/08/18 07:33:42;;;;;;;;;;;;;;;26.73;47.78;99892.56;20444529;28;101813;-71
2022/08/18 07:43:55;;;;;;;;;;;;;;;26.83;48.09;99895.88;20440694;28;102218;-74
2022/08/18 07:54:19;;;;;;;;;;;;;;;26.93;48.10;99901.03;20441677;28;98461;-74
2022/08/18 08:04:29;;;;;;;;;;;;;;;26.99;47.82;99897.69;20369993;28;97978;-74
2022/08/18 08:14:32;;;;;;;;;;;;;;;27.05;47.25;99926.25;20364504;28;98319;-75
2022/08/18 08:24:39;;;;;;;;;;;;;;;27.11;46.95;99924.72;20364506;28;101269;-75
2022/08/18 08:34:47;;;;;;;;;;;;;;;27.16;46.96;99933.84;20380802;28;99584;-74
2022/08/18 08:44:51;;;;;;;;;;;;;;;27.26;46.26;99924.88;20380798;28;98482;-71
2022/08/18 08:55:03;;;;;;;;;;;;;;;27.30;45.95;99911.06;20354406;28;101715;-74
2022/08/18 09:05:07;;;;;;;;;;;;;;;27.37;46.29;99897.06;20372899;28;98932;-75
2022/08/18 09:15:23;;;;;;;;;;;;;;;27.44;45.78;99879.47;20368706;28;101481;-74
2022/08/18 09:25:40;;;;;;;;;;;;;;;27.53;45.31;99875.78;20382943;28;98739;-75
2022/08/18 09:35:47;;;;;;;;;;;;;;;27.61;44.74;99858.94;20442550;28;99120;-75
2022/08/18 09:45:51;;;;;;;;;;;;;;;27.70;44.50;99857.09;20459449;28;97586;-74
2022/08/18 09:55:54;;;;;;;;;;;;;;;27.79;44.21;99845.38;20464840;27;99429;-77
2022/08/18 10:05:59;;;;;;;;;;;;;;;27.82;43.83;99815.78;20430667;28;97928;-74
2022/08/18 10:16:13;;;;;;;;;;;;;;;27.85;43.92;99810.09;20445398;28;98056;-74
2022/08/18 10:26:28;;;;;;;;;;;;;;;27.89;43.35;99810.56;20430522;28;101967;-75
2022/08/18 10:36:36;;;;;;;;;;;;;;;27.93;43.01;99807.38;20433606;28;101486;-76
2022/08/18 10:46:40;;;;;;;;;;;;;;;28.03;43.40;99806.31;20458736;28;100985;-74
2022/08/18 10:56:40;;;;;;;;;;;;;;;28.11;43.24;99779.66;20469993;28;101306;-74
2022/08/18 11:06:46;;;;;;;;;;;;;;;28.24;41.83;99795.03;20449772;28;101108;-73
2022/08/18 11:16:52;;;;;;;;;;;;;;;28.30;42.17;99778.31;20450200;28;99941;-74
2022/08/18 11:26:52;;;;;;;;;;;;;;;28.38;40.32;99767.59;20482877;28;98538;-76
2022/08/18 11:36:57;;;;;;;;;;;;;;;28.45;39.99;99741.06;20473830;28;98235;-76
2022/08/18 11:47:18;;;;;;;;;;;;;;;28.51;38.91;99732.31;20478779;28;98692;-74
2022/08/18 11:57:40;;;;;;;;;;;;;;;28.59;39.08;99716.25;20463791;28;97252;-75
2022/08/18 12:07:42;;;;;;;;;;;;;;;28.63;38.84;99706.06;20439836;28;100726;-74
2022/08/18 12:17:44;;;;;;;;;;;;;;;28.69;38.98;99697.38;20461964;28;97931;-74
2022/08/18 12:27:44;;;;;;;;;;;;;;;28.76;38.23;99673.47;20452213;28;100739;-73
2022/08/18 12:37:45;;;;;;;;;;;;;;;28.80;37.73;99647.28;20465812;28;98890;-74
2022/08/18 12:47:45;;;;;;;;;;;;;;;28.86;37.55;99662.53;20463164;28;97535;-75
2022/08/18 12:57:48;;;;;;;;;;;;;;;28.90;38.04;99674.47;20472878;28;97301;-75
2022/08/18 13:07:48;;;;;;;;;;;;;;;28.97;38.01;99698.53;20483270;28;98570;-76
2022/08/18 13:17:49;;;;;;;;;;;;;;;29.17;37.54;99698.75;20446506;27;98471;-78
2022/08/18 13:27:51;;;;;;;;;;;;;;;29.21;36.45;99698.19;20445562;28;98591;-75
2022/08/18 13:37:53;;;;;;;;;;;;;;;29.19;37.99;99700.19;20465656;28;98100;-74
2022/08/18 13:47:53;;;;;;;;;;;;;;;29.20;38.08;99679.72;20477930;28;97788;-73
2022/08/18 13:57:53;;;;;;;;;;;;;;;29.19;38.73;99694.88;20463796;27;98594;-73
2022/08/18 14:07:53;;;;;;;;;;;;;;;29.21;39.02;99689.34;20481839;28;101768;-75
2022/08/18 14:17:54;;;;;;;;;;;;;;;29.23;39.36;99696.16;20471087;27;98319;-73
2022/08/18 14:27:54;;;;;;;;;;;;;;;29.26;39.62;99700.28;20472907;27;98589;-73
2022/08/18 14:37:54;;;;;;;;;;;;;;;29.29;39.79;99699.88;20471829;27;99067;-73
2022/08/18 14:47:55;;;;;;;;;;;;;;;29.34;41.90;99700.16;20460710;28;98712;-72
2022/08/18 14:57:56;;;;;;;;;;;;;;;29.40;43.21;99690.59;20445939;28;98756;-73
2022/08/18 15:07:59;;;;;;;;;;;;;;;29.44;43.34;99697.19;20443400;28;99378;-72
2022/08/18 15:17:59;;;;;;;;;;;;;;;29.45;41.89;99685.50;20433068;28;97397;-72
2022/08/18 15:28:00;;;;;;;;;;;;;;;29.45;41.94;99684.69;20445813;28;99322;-72
2022/08/18 15:38:00;;;;;;;;;;;;;;;29.45;41.83;99690.03;20438140;28;101652;-73
2022/08/18 15:48:01;;;;;;;;;;;;;;;29.44;41.66;99701.72;20450875;28;101449;-73
2022/08/18 15:58:01;;;;;;;;;;;;;;;29.42;42.07;99701.91;20435136;28;99497;-72
2022/08/18 16:08:02;;;;;;;;;;;;;;;29.39;41.77;99684.44;20420654;28;100739;-72
2022/08/18 16:18:04;;;;;;;;;;;;;;;29.39;43.75;99679.13;20435061;28;99314;-72
2022/08/18 16:28:05;;;;;;;;;;;;;;;29.39;43.14;99689.78;20447409;28;97796;-74
2022/08/18 16:38:07;;;;;;;;;;;;;;;29.40;43.17;99690.59;20446805;28;97781;-73
2022/08/18 16:48:08;;;;;;;;;;;;;;;29.42;43.41;99687.72;20459327;28;101411;-73
2022/08/18 17:08:32;;;;;;;;;;;;;;;29.36;44.50;99666.16;20468546;28;99396;-72
2022/08/18 17:18:34;;;;;;;;;;;;;;;29.32;44.41;99650.72;20446747;28;98537;-75
2022/08/18 17:28:39;;;;;;;;;;;;;;;29.29;44.32;99637.75;20456692;28;100829;-72
2022/08/18 17:38:50;;;;;;;;;;;;;;;29.23;44.32;99634.84;20460682;28;100815;-74
2022/08/18 17:49:02;;;;;;;;;;;;;;;29.19;44.85;99593.56;20437555;28;98391;-78
2022/08/18 17:59:11;;;;;;;;;;;;;;;29.17;44.67;99616.09;20426450;28;98961;-73
2022/08/18 18:09:12;;;;;;;;;;;;;;;29.17;43.00;99654.22;20439037;28;98201;-77
2022/08/18 18:19:13;;;;;;;;;;;;;;;29.18;39.26;99644.41;20466516;28;98481;-77
2022/08/18 18:29:15;;;;;;;;;;;;;;;29.18;38.24;99665.75;20468177;28;101668;-77
2022/08/18 18:39:20;;;;;;;;;;;;;;;29.15;39.00;99674.09;20482143;28;100447;-85
2022/08/18 18:49:26;;;;;;;;;;;;;;;29.14;39.99;99680.44;20448931;27;101475;-78
2022/08/18 18:59:41;;;;;;;;;;;;;;;29.13;40.08;99668.16;20458155;27;98366;-81
2022/08/18 19:09:47;;;;;;;;;;;;;;;29.11;40.20;99670.16;20441016;28;101473;-79
2022/08/18 19:19:54;;;;;;;;;;;;;;;29.06;39.92;99676.91;20452828;28;98627;-83
2022/08/18 19:29:57;;;;;;;;;;;;;;;29.05;39.56;99666.41;20490910;28;100928;-80
2022/08/18 19:40:15;;;;;;;;;;;;;;;29.02;39.02;99664.94;20484894;28;99628;-80
2022/08/18 19:50:35;;;;;;;;;;;;;;;29.01;39.71;99662.47;20465283;28;99081;-79
2022/08/18 20:00:56;;;;;;;;;;;;;;;28.99;38.36;99672.50;20402626;28;101717;-80
2022/08/18 20:11:20;;;;;;;;;;;;;;;28.97;37.77;99667.38;20467899;28;98858;-80
2022/08/18 20:21:27;;;;;;;;;;;;;;;28.97;37.71;99688.69;20467575;28;97625;-81
2022/08/18 20:31:47;;;;;;;;;;;;;;;28.95;38.02;99665.91;20469392;28;98953;-81
2022/08/18 20:41:49;;;;;;;;;;;;;;;28.95;38.12;99661.38;20468659;28;99264;-81
2022/08/18 20:51:55;;;;;;;;;;;;;;;28.94;37.90;99664.25;20463317;28;98555;-81
2022/08/18 21:01:57;;;;;;;;;;;;;;;28.94;38.05;99690.91;20464755;28;97985;-81
2022/08/18 21:11:57;;;;;;;;;;;;;;;28.92;38.09;99699.91;20460391;28;98887;-80
2022/08/18 21:21:59;;;;;;;;;;;;;;;28.91;38.30;99726.75;20459546;28;97907;-78
2022/08/18 21:32:11;;;;;;;;;;;;;;;28.87;38.17;99731.63;20454934;28;101035;-79
2022/08/18 21:42:16;;;;;;;;;;;;;;;28.83;38.01;99745.50;20451153;28;100827;-78
2022/08/18 21:52:26;;;;;;;;;;;;;;;28.82;37.95;99746.50;20455822;28;98654;-80
2022/08/18 22:02:26;;;;;;;;;;;;;;;28.77;38.13;99760.38;20457611;28;98418;-78
2022/08/18 22:33:08;;;;;;;;;;;;;;;28.63;38.44;99811.81;20437062;28;101513;-77
2022/08/18 22:43:09;;;;;;;;;;;;;;;28.56;38.61;99815.19;20451607;28;100820;-77
2022/08/18 22:53:09;;;;;;;;;;;;;;;28.50;38.76;99820.41;20450008;28;97766;-78
2022/08/18 23:03:11;;;;;;;;;;;;;;;28.42;39.07;99810.66;20449316;28;100861;-80
2022/08/18 23:13:11;;;;;;;;;;;;;;;28.36;39.43;99806.88;20454327;28;97958;-80
2022/08/18 23:23:11;;;;;;;;;;;;;;;28.27;39.64;99795.50;20450425;28;99935;-80
2022/08/18 23:33:14;;;;;;;;;;;;;;;28.17;40.23;99799.41;20459735;28;107246;-77
2022/08/18 23:43:15;;;;;;;;;;;;;;;28.17;40.21;99786.91;20441370;28;97493;-77
2022/08/18 23:53:17;;;;;;;;;;;;;;;28.13;40.40;99785.63;20447432;28;98863;-81
